CheckWX is a tool to help pilots better visualize weather data.  It is not intended as a substitute for an official pre-flight weather briefing.

17:12:31 UTC

KAIB METAR
Hopkins Field Airport
Nucla, Colorado, USA
Current

38 mins ago

KAIB 221635Z AUTO 36004KT 10SM CLR 28/01 A3034 RMK AO2
Observed
Jul-22 @ 16:35 UTC
Wind
  • 360° at 4 KTS
Visibility
10 SM
Flight Rules
VFR
Cloud Levels
  • Clear skies
Temperature
28°C / 82°F
Dewpoint
C / 34°F
Humidity
17%
Altimeter
30.34" Hg
Pressure
1027.42 hPa
Previous

58 mins ago

KAIB 221615Z AUTO 35003KT 10SM CLR 27/00 A3034 RMK AO2
Observed
Jul-22 @ 16:15 UTC
Wind
  • 350° at 3 KTS
Visibility
10 SM
Flight Rules
VFR
Cloud Levels
  • Clear skies
Temperature
27°C / 81°F
Dewpoint
C / 32°F
Humidity
17%
Altimeter
30.34" Hg
Pressure
1027.42 hPa
Previous

1 hour ago

KAIB 221555Z AUTO 36003KT 10SM CLR 26/M02 A3034 RMK AO2
Observed
Jul-22 @ 15:55 UTC
Wind
  • 360° at 3 KTS
Visibility
10 SM
Flight Rules
VFR
Cloud Levels
  • Clear skies
Temperature
26°C / 79°F
Dewpoint
-2°C / 28°F
Humidity
16%
Altimeter
30.34" Hg
Pressure
1027.42 hPa